createdAt,value
2019-05-26T00:11:54.062Z,19.41
2019-05-26T00:14:28.624Z,19.39
2019-05-26T00:28:25.731Z,19.50
2019-05-26T00:39:35.485Z,19.55
2019-05-26T01:05:57.789Z,19.64
2019-05-26T01:35:21.829Z,19.43
2019-05-26T01:40:41.220Z,19.48
2019-05-26T01:46:07.351Z,19.55
2019-05-26T01:57:08.042Z,19.53
2019-05-26T02:05:51.699Z,19.49
2019-05-26T02:11:33.366Z,19.38
2019-05-26T02:20:09.060Z,19.32
2019-05-26T02:32:18.591Z,19.15
2019-05-26T02:35:00.069Z,19.15
2019-05-26T02:37:59.825Z,19.22
2019-05-26T02:40:43.869Z,19.24
2019-05-26T02:43:13.469Z,19.19
2019-05-26T02:48:40.231Z,19.07
2019-05-26T02:51:09.936Z,18.97
2019-05-26T02:53:39.426Z,18.95
2019-05-26T02:56:09.087Z,18.92
2019-05-26T02:58:38.643Z,18.90
2019-05-26T03:01:08.354Z,18.86
2019-05-26T03:03:38.319Z,18.87
2019-05-26T03:06:09.022Z,18.86
2019-05-26T03:08:39.900Z,18.85
2019-05-26T03:11:11.077Z,18.82
2019-05-26T03:13:49.260Z,18.80
2019-05-26T03:16:39.000Z,18.83
2019-05-26T03:19:12.997Z,18.80
2019-05-26T03:21:46.700Z,18.82
2019-05-26T03:24:32.592Z,18.82
2019-05-26T03:29:59.052Z,18.82
2019-05-26T03:32:49.240Z,18.77
2019-05-26T03:35:20.326Z,18.77
2019-05-26T03:43:30.159Z,18.67
2019-05-26T03:46:20.072Z,18.63
2019-05-26T03:48:57.773Z,18.66
2019-05-26T04:04:25.095Z,18.61
2019-05-26T04:06:54.682Z,18.51
2019-05-26T04:16:26.676Z,18.68
2019-05-26T04:43:15.163Z,18.82
2019-05-26T05:00:23.906Z,18.87
2019-05-26T05:03:03.530Z,18.94
2019-05-26T05:39:55.475Z,18.76
2019-05-26T05:42:25.150Z,18.72
2019-05-26T05:44:54.654Z,18.70
2019-05-26T05:47:46.016Z,18.77
2019-05-26T05:50:22.794Z,18.78
2019-05-26T05:52:52.535Z,18.84
2019-05-26T06:32:04.693Z,18.72
2019-05-26T06:34:44.510Z,18.72
2019-05-26T06:40:32.431Z,18.76
2019-05-26T08:45:46.953Z,19.18
2019-05-26T08:50:58.755Z,19.18
2019-05-26T08:53:28.266Z,19.15
2019-05-26T08:59:09.839Z,19.15
2019-05-26T09:01:40.437Z,19.19
2019-05-26T09:07:25.874Z,19.15
2019-05-26T09:10:07.410Z,19.15
2019-05-26T09:12:36.859Z,19.18
2019-05-26T09:15:07.032Z,19.15
2019-05-26T09:17:36.614Z,19.17
2019-05-26T09:20:10.918Z,19.15
2019-05-26T09:22:38.957Z,19.18
2019-05-26T09:25:08.638Z,19.19
2019-05-26T09:27:38.607Z,19.19
2019-05-26T09:30:08.944Z,19.20
2019-05-26T09:32:38.700Z,19.19
2019-05-26T09:35:08.165Z,19.16
2019-05-26T09:37:37.627Z,19.18
2019-05-26T09:40:07.765Z,19.22
2019-05-26T09:42:40.312Z,19.30
2019-05-26T09:45:10.235Z,19.32
2019-05-26T09:47:42.350Z,19.40
2019-05-26T09:50:12.138Z,19.44
2019-05-26T09:52:53.992Z,19.44
2019-05-26T09:55:25.368Z,19.53
2019-05-26T09:57:56.285Z,19.59
2019-05-26T10:00:28.067Z,19.60
2019-05-26T10:02:59.211Z,19.65
2019-05-26T10:05:28.837Z,19.64
2019-05-26T10:07:58.241Z,19.65
2019-05-26T10:10:29.085Z,19.64
2019-05-26T10:13:00.677Z,19.63
2019-05-26T10:15:33.011Z,19.68
2019-05-26T10:18:02.520Z,19.66
2019-05-26T10:20:33.696Z,19.66
2019-05-26T10:23:05.347Z,19.59
2019-05-26T10:25:37.603Z,19.58
2019-05-26T10:28:06.990Z,19.56
2019-05-26T10:30:36.477Z,19.46
2019-05-26T10:33:06.041Z,19.37
2019-05-26T10:35:35.517Z,19.32
2019-05-26T10:38:15.144Z,19.34
2019-05-26T10:40:48.190Z,19.27
2019-05-26T10:43:19.352Z,19.26
2019-05-26T10:45:55.818Z,19.21
2019-05-26T10:48:25.281Z,19.22
2019-05-26T10:50:54.794Z,19.14
2019-05-26T10:53:26.938Z,19.08
2019-05-26T10:55:59.748Z,19.09
2019-05-26T10:58:29.179Z,19.16
2019-05-26T11:00:58.720Z,19.18
2019-05-26T11:03:31.009Z,19.22
2019-05-26T11:06:00.350Z,19.32
2019-05-26T11:08:29.837Z,19.33
2019-05-26T11:11:32.496Z,19.34
2019-05-26T11:14:12.328Z,19.42
2019-05-26T11:17:01.321Z,19.41
2019-05-26T11:19:43.178Z,19.48
2019-05-26T11:22:14.449Z,19.55
2019-05-26T11:24:49.205Z,19.55
2019-05-26T11:27:18.695Z,19.58
2019-05-26T11:29:49.265Z,19.66
2019-05-26T11:32:18.609Z,19.67
2019-05-26T11:35:00.729Z,19.61
2019-05-26T11:37:19.173Z,19.68
2019-05-26T11:39:48.681Z,19.71
2019-05-26T11:42:17.982Z,19.73
2019-05-26T11:44:47.613Z,19.74
2019-05-26T11:47:17.078Z,19.74
2019-05-26T11:49:46.440Z,19.78
2019-05-26T11:52:15.797Z,19.73
2019-05-26T11:54:45.126Z,19.75
2019-05-26T11:57:14.533Z,19.81
2019-05-26T11:59:47.357Z,19.86
2019-05-26T12:02:15.276Z,19.86
2019-05-26T12:04:44.569Z,19.86
2019-05-26T12:07:16.152Z,19.84
2019-05-26T12:09:45.509Z,19.79
2019-05-26T12:12:17.802Z,19.82
2019-05-26T12:14:47.178Z,19.83
2019-05-26T12:17:16.643Z,19.84
2019-05-26T12:19:46.147Z,19.82
2019-05-26T12:22:15.523Z,19.82
2019-05-26T12:24:44.967Z,19.75
2019-05-26T12:27:14.231Z,19.75
2019-05-26T12:29:44.087Z,19.79
2019-05-26T12:32:13.526Z,19.77
2019-05-26T12:34:42.917Z,19.72
2019-05-26T12:37:12.371Z,19.72
2019-05-26T12:39:41.801Z,19.76
2019-05-26T12:42:16.885Z,19.68
2019-05-26T12:44:49.607Z,19.68
2019-05-26T12:47:15.719Z,19.71
2019-05-26T12:49:45.121Z,19.73
2019-05-26T12:52:15.065Z,19.76
2019-05-26T12:54:46.872Z,19.75
2019-05-26T12:57:16.246Z,19.74
2019-05-26T12:59:45.605Z,19.76
2019-05-26T13:02:15.166Z,19.86
2019-05-26T13:04:44.546Z,19.89
2019-05-26T13:07:13.957Z,19.90
2019-05-26T13:09:43.370Z,19.87
2019-05-26T13:12:12.737Z,19.90
2019-05-26T13:14:42.140Z,19.90
2019-05-26T13:17:13.229Z,19.93
2019-05-26T13:19:42.710Z,19.97
2019-05-26T13:22:12.169Z,20.04
2019-05-26T13:24:41.569Z,20.05
2019-05-26T13:27:10.952Z,20.04
2019-05-26T13:29:40.305Z,19.92
2019-05-26T13:32:09.662Z,19.88
2019-05-26T13:34:39.028Z,19.80
2019-05-26T13:37:08.518Z,19.67
2019-05-26T13:39:37.875Z,19.66
2019-05-26T13:42:07.160Z,19.61
2019-05-26T13:44:36.519Z,19.58
2019-05-26T13:47:05.774Z,19.48
2019-05-26T13:49:35.028Z,19.44
2019-05-26T13:52:04.456Z,19.41
2019-05-26T13:54:33.850Z,19.34
2019-05-26T13:57:03.161Z,19.32
2019-05-26T13:59:32.439Z,19.29
2019-05-26T14:02:01.929Z,19.21
2019-05-26T14:04:31.254Z,19.23
2019-05-26T14:07:00.606Z,19.29
2019-05-26T14:09:29.890Z,19.36
2019-05-26T14:11:59.204Z,19.45
2019-05-26T14:14:29.288Z,19.50
2019-05-26T14:17:00.226Z,19.46
2019-05-26T14:19:29.834Z,19.52
2019-05-26T14:21:59.844Z,19.65
2019-05-26T14:24:29.181Z,19.79
2019-05-26T14:26:58.577Z,19.80
2019-05-26T14:29:27.984Z,19.84
2019-05-26T14:31:57.247Z,19.97
2019-05-26T14:34:26.562Z,20.16
2019-05-26T14:36:55.955Z,20.42
2019-05-26T14:39:25.330Z,20.47
2019-05-26T14:41:57.068Z,20.39
2019-05-26T14:44:26.428Z,20.62
2019-05-26T14:46:55.842Z,20.89
2019-05-26T14:49:25.226Z,21.08
2019-05-26T14:51:54.595Z,21.17
2019-05-26T14:54:24.028Z,21.24
2019-05-26T14:56:55.792Z,21.27
2019-05-26T14:59:25.208Z,21.11
2019-05-26T15:01:54.763Z,21.23
2019-05-26T15:04:24.342Z,21.24
2019-05-26T15:06:54.682Z,21.05
2019-05-26T15:09:25.517Z,21.06
2019-05-26T15:11:55.207Z,21.30
2019-05-26T15:14:24.762Z,21.11
2019-05-26T15:16:54.156Z,21.21
2019-05-26T15:19:23.735Z,21.30
2019-05-26T15:21:53.200Z,21.33
2019-05-26T15:24:23.249Z,21.19
2019-05-26T15:26:52.680Z,20.88
2019-05-26T15:29:22.063Z,21.24
2019-05-26T15:31:51.557Z,21.19
2019-05-26T15:34:20.956Z,21.45
2019-05-26T15:36:50.363Z,21.65
2019-05-26T15:39:22.745Z,21.91
2019-05-26T15:41:52.172Z,22.04
2019-05-26T15:44:25.258Z,22.16
2019-05-26T15:46:54.662Z,22.05
2019-05-26T15:49:24.283Z,22.31
2019-05-26T15:51:53.741Z,22.68
2019-05-26T15:54:23.307Z,22.94
2019-05-26T15:56:52.859Z,23.14
2019-05-26T15:59:22.491Z,23.26
2019-05-26T16:01:51.986Z,23.60
2019-05-26T16:04:21.414Z,23.87
2019-05-26T16:06:50.877Z,24.12
2019-05-26T16:09:21.133Z,24.53
2019-05-26T16:11:51.373Z,24.51
2019-05-26T16:14:20.907Z,24.28
2019-05-26T16:16:51.638Z,23.94
2019-05-26T16:19:21.151Z,23.78
2019-05-26T16:21:50.638Z,23.37
2019-05-26T16:24:20.084Z,23.07
2019-05-26T16:26:49.488Z,22.86
2019-05-26T16:29:18.927Z,22.22
2019-05-26T16:31:48.499Z,22.08
2019-05-26T16:34:19.488Z,22.23
2019-05-26T16:36:48.900Z,23.01
2019-05-26T16:39:18.533Z,23.62
2019-05-26T16:41:48.021Z,24.10
2019-05-26T16:44:17.638Z,24.63
2019-05-26T16:46:55.941Z,25.00
2019-05-26T16:49:18.286Z,25.18
2019-05-26T16:51:50.311Z,25.28
2019-05-26T16:54:19.821Z,25.12
2019-05-26T16:56:49.476Z,25.08
2019-05-26T16:59:20.056Z,25.29
2019-05-26T17:01:49.796Z,25.56
2019-05-26T17:04:22.266Z,25.55
2019-05-26T17:06:51.783Z,25.42
2019-05-26T17:09:21.356Z,25.29
2019-05-26T17:11:50.861Z,25.22
2019-05-26T17:14:23.812Z,25.45
2019-05-26T17:16:53.384Z,25.82
2019-05-26T17:19:25.249Z,25.94
2019-05-26T17:21:58.593Z,25.79
2019-05-26T17:24:31.269Z,25.75
2019-05-26T17:27:02.175Z,25.57
2019-05-26T17:29:33.720Z,25.55
2019-05-26T17:32:08.730Z,25.39
2019-05-26T17:34:41.880Z,25.48
2019-05-26T17:37:11.478Z,25.83
2019-05-26T17:39:41.083Z,26.00
2019-05-26T17:42:10.606Z,26.23
2019-05-26T17:44:42.222Z,26.49
2019-05-26T17:47:12.808Z,26.56
2019-05-26T17:49:43.127Z,26.56
2019-05-26T17:52:13.164Z,26.19
2019-05-26T17:54:42.680Z,25.71
2019-05-26T17:57:12.988Z,25.28
2019-05-26T17:59:43.411Z,24.75
2019-05-26T18:02:17.276Z,24.57
2019-05-26T18:04:50.406Z,24.02
2019-05-26T18:07:20.947Z,23.74
2019-05-26T18:09:50.569Z,22.96
2019-05-26T18:12:20.117Z,23.07
2019-05-26T18:14:49.673Z,23.16
2019-05-26T18:17:19.963Z,22.90
2019-05-26T18:20:01.907Z,23.00
2019-05-26T18:22:34.303Z,22.94
2019-05-26T18:25:13.563Z,23.06
2019-05-26T18:27:43.993Z,23.15
2019-05-26T18:30:14.051Z,23.22
2019-05-26T18:32:44.996Z,23.44
2019-05-26T18:35:15.411Z,23.56
2019-05-26T18:37:45.013Z,23.70
2019-05-26T18:51:16.920Z,24.32
2019-05-26T19:08:55.239Z,23.38
2019-05-26T19:17:20.500Z,23.33
2019-05-26T19:19:50.737Z,23.16
2019-05-26T19:22:20.346Z,23.24
2019-05-26T19:27:56.918Z,22.90
2019-05-26T19:36:28.801Z,22.92
2019-05-26T19:38:59.941Z,23.26
2019-05-26T19:42:00.530Z,23.31
2019-05-26T19:44:32.276Z,23.01
2019-05-26T19:47:23.106Z,22.63
2019-05-26T19:50:11.621Z,22.31
2019-05-26T19:52:41.100Z,22.01
2019-05-26T19:55:10.903Z,21.65
2019-05-26T19:57:40.989Z,21.34
2019-05-26T20:00:12.861Z,21.11
2019-05-26T20:02:42.406Z,20.88
2019-05-26T20:05:12.439Z,20.66
2019-05-26T20:07:42.122Z,20.43
2019-05-26T20:10:12.965Z,20.25
2019-05-26T20:12:42.509Z,20.07
2019-05-26T20:15:13.230Z,19.92
2019-05-26T20:17:42.605Z,19.81
2019-05-26T20:20:13.530Z,19.66
2019-05-26T20:22:42.976Z,19.54
2019-05-26T20:25:12.628Z,19.44
2019-05-26T20:27:42.270Z,19.37
2019-05-26T20:30:12.437Z,19.27
2019-05-26T20:32:41.777Z,19.20
2019-05-26T20:35:11.449Z,19.14
2019-05-26T20:37:40.945Z,19.03
2019-05-26T20:40:11.043Z,18.98
2019-05-26T20:42:40.470Z,18.95
2019-05-26T20:45:10.400Z,18.92
2019-05-26T20:47:39.772Z,18.89
2019-05-26T20:50:10.523Z,18.85
2019-05-26T20:52:39.913Z,18.85
2019-05-26T20:55:10.247Z,18.89
2019-05-26T20:57:39.633Z,18.89
2019-05-26T21:00:11.603Z,18.90
2019-05-26T21:02:41.789Z,18.88
2019-05-26T21:05:11.578Z,18.86
2019-05-26T21:07:41.085Z,18.83
2019-05-26T21:10:11.909Z,18.78
2019-05-26T21:12:41.557Z,18.76
2019-05-26T21:15:11.563Z,18.79
2019-05-26T21:17:40.984Z,18.77
2019-05-26T21:20:11.131Z,18.77
2019-05-26T21:22:40.460Z,18.78
2019-05-26T21:25:11.235Z,18.75
2019-05-26T21:27:40.702Z,18.72
2019-05-26T21:30:11.986Z,18.70
2019-05-26T21:32:41.466Z,18.68
2019-05-26T21:35:11.217Z,18.60
2019-05-26T21:37:43.092Z,18.52
2019-05-26T21:40:13.280Z,18.45
2019-05-26T21:42:42.745Z,18.42
2019-05-26T21:45:13.013Z,18.42
2019-05-26T21:47:42.648Z,18.42
2019-05-26T21:50:12.266Z,18.40
2019-05-26T21:52:41.800Z,18.42
2019-05-26T21:55:13.090Z,18.40
2019-05-26T21:57:42.622Z,18.41
2019-05-26T22:00:14.938Z,18.39
2019-05-26T22:02:44.679Z,18.41
2019-05-26T22:05:14.306Z,18.36
2019-05-26T22:07:44.045Z,18.35
2019-05-26T22:10:14.097Z,18.33
2019-05-26T22:12:45.956Z,18.32
2019-05-26T22:15:15.651Z,18.32
2019-05-26T22:17:49.056Z,18.30
2019-05-26T22:20:18.761Z,18.30
2019-05-26T22:22:48.189Z,18.33
2019-05-26T22:25:17.722Z,18.28
2019-05-26T22:27:49.635Z,18.26
2019-05-26T22:30:19.351Z,18.24
2019-05-26T22:32:48.944Z,18.22
2019-05-26T22:35:23.043Z,18.21
2019-05-26T22:37:52.684Z,18.17
2019-05-26T22:40:23.522Z,18.17
2019-05-26T22:42:53.001Z,18.16
2019-05-26T22:45:24.092Z,18.10
2019-05-26T22:47:53.613Z,18.07
2019-05-26T22:50:23.187Z,18.02
2019-05-26T22:52:52.546Z,18.00
2019-05-26T22:55:21.938Z,18.01
2019-05-26T22:57:51.344Z,17.99
2019-05-26T23:00:20.710Z,17.94
2019-05-26T23:02:50.118Z,17.90
2019-05-26T23:05:19.472Z,17.88
2019-05-26T23:07:48.954Z,17.88
2019-05-26T23:10:18.600Z,17.86
2019-05-26T23:12:48.254Z,17.83
2019-05-26T23:15:18.116Z,17.84
2019-05-26T23:17:47.573Z,17.80
2019-05-26T23:20:17.037Z,17.80
2019-05-26T23:22:46.464Z,17.77
2019-05-26T23:25:16.104Z,17.75
2019-05-26T23:27:45.480Z,17.75
2019-05-26T23:30:15.102Z,17.72
2019-05-26T23:32:44.534Z,17.70
2019-05-26T23:35:15.424Z,17.66
2019-05-26T23:37:44.794Z,17.69
2019-05-26T23:40:14.197Z,17.64
2019-05-26T23:42:43.507Z,17.60
2019-05-26T23:45:12.990Z,17.62
2019-05-26T23:47:42.354Z,17.61
2019-05-26T23:50:11.785Z,17.59
2019-05-26T23:52:41.652Z,17.58
2019-05-26T23:55:13.281Z,17.59
2019-05-26T23:57:42.637Z,17.58
